Morristown, NJ (07960)

08:30 EDT le 25 avril 2015 (GMT -0400)
Wheatsheaf | | Change Station
CLOSE
Current Station
Stations météorologiques personnelles
Location: Morristown Township, NJ
Altitude: 406 ft
Stations météo à proximité

Alt. 406 ft 40.81 °N, 74.50 °W | Updated 9 minutes ago

Partiellement nuageux
Partiellement nuageux
39.3 ° F
Paraît 39 ° F
N
1.0
Vent Variable Vent de ONO
Gusts 4.0 mph

Aujourd'hui
Haut(e) -- | Bas -- ° F
--% Risque de précip.
Hier
Haut(e) -- | Bas -- ° F
Precip. -- pouce
6:04 AM 7:47 PM
Lune montante, 45% visible
Pression 29.94 pouce
Visibilité 15.0 Miles terrestres
Nuages Nuages épars 25000 ft
Refroidissement éolien 39 ° F
Point de rosée 26 ° F
Humidité 60%
Précipitations 0.00 pouce
Profondeur de la couche neigeuse Non disponible.
UV 1 sur 12
Pollen 11.20 sur 12
Qualité de l'air Non disponible.
Flu Activity Local Activity
METAR KMMU 251145Z 31009KT 15SM SCT250 04/M05 A2994

More Conditions Fewer Conditions

Pression 29.94 pouce
Visibilité 15.0 Miles terrestres
Nuages Nuages épars 25000 ft
Refroidissement éolien 39 ° F
Point de rosée 26 ° F
Humidité 60%
Précipitations 0.00 pouce
Profondeur de la couche neigeuse Non disponible.
UV 1 sur 12
Pollen 11.20 sur 12
Qualité de l'air Non disponible.
Flu Activity Local Activity
METAR KMMU 251145Z 31009KT 15SM SCT250 04/M05 A2994

More Conditions Fewer Conditions

10-Day Weather Forecast

Almanac

Astronomie

Apr. 25, 2015 Lever Coucher
Temps réel
Crépuscule civil
Crépuscule nautique
Crépuscule astronomique
Lune
Durée de lumière visible
Longueur du jour
Tomorrow will be .
, % of the Moon is Illuminated

Extrêmes aujourd'hui

State Highs State Lows

Community

WunderPhotos

Upload Photos

1,816,647 Photos téléchargées !

WunderBlogs® & News

Nearby

Qualité de l'air

  Qualité de l'air Indice de la qualité de l'air Polluant
Not available.

Épaisseur de neige

Station Depth Altitude

Activité sismique

Ville Distance Mag. Time & Date
Minimum magnitude displayed is 2.5.

Températures des eaux côtières

Lieu Température

Stations

Stations météo à proximité

Emplacement de la station Température Refroidissement éolien Point de rosée Humidité Vent Precip. Alt. Mise à jour Type